Time;durP1;ratioP1;P1;durP2;ratioP2;P2;SDS_P1;SDS_P2;PMS_P1;PMS_P2;Temp;Humidity;BMP_temperature;BMP_pressure;BME280_temperature;BME280_humidity;BME280_pressure;Samples;Min_cycle;Max_cycle;Signal;HPM_P1;HPM_P2
2023/09/20 00:20:40;;;;;;;6.70;4.35;;;21.50;99.90;;;;;;4578476;19;20026;-69
2023/09/20 00:22:15;;;;;;;6.45;3.85;;;21.50;99.90;;;;;;4594279;19;20003;-69
2023/09/20 00:23:49;;;;;;;7.07;4.03;;;21.50;99.90;;;;;;4592312;19;20002;-69
2023/09/20 00:25:24;;;;;;;5.65;3.50;;;21.50;99.90;;;;;;4592521;19;20009;-69
2023/09/20 00:26:59;;;;;;;5.90;3.33;;;21.50;99.90;;;;;;4593665;19;20025;-69
2023/09/20 00:28:32;;;;;;;6.57;4.07;;;21.50;99.90;;;;;;4593805;19;20003;-69
2023/09/20 00:30:14;;;;;;;7.07;3.80;;;21.50;99.90;;;;;;4592313;19;20030;-69
2023/09/20 00:31:52;;;;;;;7.20;3.70;;;21.50;99.90;;;;;;4592893;19;20337;-69
2023/09/20 00:33:27;;;;;;;7.40;3.38;;;21.50;99.90;;;;;;4593291;19;20007;-69
2023/09/20 00:35:01;;;;;;;6.10;3.55;;;21.50;99.90;;;;;;4593671;19;20007;-69
2023/09/20 00:36:36;;;;;;;6.95;3.78;;;21.40;99.90;;;;;;4593601;19;20003;-69
2023/09/20 00:38:10;;;;;;;6.93;3.95;;;21.40;99.90;;;;;;4593486;19;20005;-69
2023/09/20 00:39:44;;;;;;;6.53;3.10;;;21.50;99.90;;;;;;4592115;19;20023;-69
2023/09/20 00:41:22;;;;;;;7.90;3.53;;;21.50;99.90;;;;;;4593443;19;20083;-69
2023/09/20 00:43:06;;;;;;;7.55;3.75;;;21.50;99.90;;;;;;4593432;19;20002;-69
2023/09/20 00:44:41;;;;;;;6.72;3.67;;;21.50;99.90;;;;;;4592074;19;20007;-69
2023/09/20 00:46:17;;;;;;;6.57;3.67;;;21.50;99.90;;;;;;4593534;19;20013;-69
2023/09/20 00:47:55;;;;;;;8.52;3.85;;;21.50;99.90;;;;;;4592259;19;20088;-69
2023/09/20 00:49:30;;;;;;;7.40;3.72;;;21.50;99.90;;;;;;4591401;19;20030;-69
2023/09/20 00:51:09;;;;;;;6.28;3.85;;;21.50;99.90;;;;;;4593019;19;20019;-69
2023/09/20 00:52:47;;;;;;;7.38;4.10;;;21.40;99.90;;;;;;4593296;19;20003;-69
2023/09/20 00:54:21;;;;;;;7.22;3.70;;;21.50;99.90;;;;;;4591917;19;20002;-69
2023/09/20 00:55:58;;;;;;;6.43;3.45;;;21.40;99.90;;;;;;4593111;19;20017;-69
2023/09/20 00:57:32;;;;;;;7.15;4.28;;;21.50;99.90;;;;;;4590915;19;20440;-69
2023/09/20 00:59:07;;;;;;;6.38;3.95;;;21.50;99.90;;;;;;4593076;19;20402;-69
2023/09/20 01:00:47;;;;;;;8.18;4.22;;;21.50;99.90;;;;;;4592074;19;20426;-69
2023/09/20 01:02:23;;;;;;;7.43;3.70;;;21.40;99.90;;;;;;4591759;19;20003;-69
2023/09/20 01:03:58;;;;;;;6.72;4.18;;;21.50;99.90;;;;;;4592735;19;20294;-69
2023/09/20 01:05:37;;;;;;;6.93;4.00;;;21.40;99.90;;;;;;4593006;19;20006;-69
2023/09/20 01:07:11;;;;;;;7.60;4.45;;;21.40;99.90;;;;;;4593174;19;20039;-69
2023/09/20 01:08:51;;;;;;;6.38;3.83;;;21.50;99.90;;;;;;4591823;19;20021;-69
2023/09/20 01:10:26;;;;;;;8.95;4.13;;;21.40;99.90;;;;;;4591841;19;20010;-69
2023/09/20 01:12:00;;;;;;;7.88;4.05;;;21.40;99.90;;;;;;4591573;19;20380;-69
2023/09/20 01:13:34;;;;;;;7.38;3.92;;;21.40;99.90;;;;;;4591411;19;19998;-69
2023/09/20 01:15:10;;;;;;;5.25;3.75;;;21.50;99.90;;;;;;4592480;19;20007;-69
2023/09/20 01:16:45;;;;;;;8.60;3.95;;;21.50;99.90;;;;;;4592707;19;19998;-69
2023/09/20 01:18:20;;;;;;;6.35;4.10;;;21.40;99.90;;;;;;4592963;19;20374;-69
2023/09/20 01:19:57;;;;;;;7.93;3.53;;;21.40;99.90;;;;;;4592034;19;20002;-69
2023/09/20 01:21:39;;;;;;;6.85;4.10;;;21.40;99.90;;;;;;4591336;19;20066;-69
2023/09/20 01:23:13;;;;;;;6.20;3.58;;;21.40;99.90;;;;;;4591320;19;20333;-69
2023/09/20 01:24:49;;;;;;;7.13;3.85;;;21.50;99.90;;;;;;4592288;19;20006;-69
2023/09/20 01:26:22;;;;;;;12.52;4.78;;;21.40;99.90;;;;;;4592502;19;20002;-69
2023/09/20 01:28:01;;;;;;;5.65;3.67;;;21.40;99.90;;;;;;4591151;19;20026;-69
2023/09/20 01:29:38;;;;;;;6.63;3.95;;;21.40;99.90;;;;;;4590466;19;20010;-69
2023/09/20 01:31:13;;;;;;;7.60;4.38;;;21.40;99.90;;;;;;4592250;19;20436;-69
2023/09/20 01:32:47;;;;;;;5.63;3.80;;;21.40;99.90;;;;;;4592375;19;20009;-69
2023/09/20 01:34:23;;;;;;;6.60;4.05;;;21.40;99.90;;;;;;4592713;19;20322;-69
2023/09/20 01:35:58;;;;;;;6.53;3.92;;;21.40;99.90;;;;;;4592515;19;20030;-69
2023/09/20 01:37:33;;;;;;;8.75;4.10;;;21.40;99.90;;;;;;4592785;19;20007;-69
2023/09/20 01:39:09;;;;;;;5.57;3.45;;;21.40;99.90;;;;;;4592678;19;20077;-69
2023/09/20 01:40:43;;;;;;;7.30;3.90;;;21.40;99.90;;;;;;4591313;19;20006;-69
2023/09/20 01:42:17;;;;;;;7.30;3.70;;;21.40;99.90;;;;;;4592407;19;20003;-69
2023/09/20 01:43:53;;;;;;;5.63;4.13;;;21.40;99.90;;;;;;4592464;19;20013;-69
2023/09/20 01:45:27;;;;;;;5.30;3.60;;;21.40;99.90;;;;;;4590772;19;20003;-69
2023/09/20 01:47:03;;;;;;;5.25;3.80;;;21.40;99.90;;;;;;4592029;19;19999;-69
2023/09/20 01:48:38;;;;;;;6.90;3.65;;;21.40;99.90;;;;;;4592080;19;20430;-69
2023/09/20 01:50:19;;;;;;;7.18;4.07;;;21.40;99.90;;;;;;4590910;19;20003;-69
2023/09/20 01:51:54;;;;;;;7.35;4.30;;;21.40;99.90;;;;;;4590591;19;20006;-69
2023/09/20 01:53:32;;;;;;;7.47;3.85;;;21.40;99.90;;;;;;4591271;19;20006;-69
2023/09/20 01:55:15;;;;;;;5.45;3.53;;;21.40;99.90;;;;;;4591971;19;20014;-69
2023/09/20 01:56:49;;;;;;;6.97;4.00;;;21.40;99.90;;;;;;4592233;19;20066;-69
2023/09/20 01:58:25;;;;;;;5.15;3.40;;;21.40;99.90;;;;;;4592209;19;20026;-69
2023/09/20 02:00:00;;;;;;;6.00;3.28;;;21.40;99.90;;;;;;4590104;19;20302;-69
2023/09/20 02:01:35;;;;;;;7.20;4.10;;;21.40;99.90;;;;;;4591447;19;20070;-69
2023/09/20 02:03:13;;;;;;;6.55;3.53;;;21.30;99.90;;;;;;4591881;19;20006;-69
2023/09/20 02:04:48;;;;;;;4.90;3.42;;;21.30;99.90;;;;;;4591802;19;20033;-69
2023/09/20 02:06:22;;;;;;;7.22;3.72;;;21.40;99.90;;;;;;4591766;19;20006;-69
2023/09/20 02:07:57;;;;;;;7.13;3.63;;;21.40;99.90;;;;;;4591112;19;20286;-69
2023/09/20 02:09:32;;;;;;;5.40;3.47;;;21.40;99.90;;;;;;4591449;19;20306;-69
2023/09/20 02:11:08;;;;;;;7.70;3.70;;;21.30;99.90;;;;;;4590148;19;20044;-69
2023/09/20 02:12:55;;;;;;;8.25;4.47;;;21.40;99.90;;;;;;4591438;19;20081;-69
2023/09/20 02:14:29;;;;;;;5.88;3.88;;;21.40;99.90;;;;;;4590273;19;20038;-69
2023/09/20 02:16:03;;;;;;;6.53;3.45;;;21.30;99.90;;;;;;4591423;19;20002;-69
2023/09/20 02:17:38;;;;;;;5.20;3.40;;;21.30;99.90;;;;;;4592406;19;20423;-69
2023/09/20 02:19:13;;;;;;;7.70;3.60;;;21.30;99.90;;;;;;4591557;19;20003;-69
2023/09/20 02:20:47;;;;;;;4.72;2.95;;;21.30;99.90;;;;;;4589191;19;20018;-69
2023/09/20 02:22:25;;;;;;;6.47;3.47;;;21.30;99.90;;;;;;4591238;19;20028;-69
2023/09/20 02:24:01;;;;;;;8.02;4.03;;;21.30;99.90;;;;;;4591743;19;20406;-69
2023/09/20 02:25:36;;;;;;;7.00;3.13;;;21.30;99.90;;;;;;4591766;19;20461;-69
2023/09/20 02:27:11;;;;;;;6.38;3.55;;;21.30;99.90;;;;;;4591920;19;20044;-69
2023/09/20 02:28:45;;;;;;;6.25;3.72;;;21.30;99.90;;;;;;4589910;19;20027;-69
2023/09/20 02:30:26;;;;;;;5.88;3.60;;;21.30;99.90;;;;;;4589730;19;20003;-69
2023/09/20 02:32:02;;;;;;;7.20;3.80;;;21.30;99.90;;;;;;4590073;19;20484;-69
2023/09/20 02:33:38;;;;;;;6.05;3.47;;;21.30;99.90;;;;;;4591287;19;20009;-69
2023/09/20 02:35:12;;;;;;;6.55;3.58;;;21.30;99.90;;;;;;4590055;19;20344;-69
2023/09/20 02:36:49;;;;;;;6.35;3.92;;;21.30;99.90;;;;;;4591183;19;20021;-69
2023/09/20 02:38:24;;;;;;;7.03;4.15;;;21.30;99.90;;;;;;4589941;19;20362;-69
2023/09/20 02:39:58;;;;;;;7.22;3.78;;;21.30;99.90;;;;;;4590625;19;20410;-69
2023/09/20 02:41:33;;;;;;;5.80;3.65;;;21.30;99.90;;;;;;4589894;19;20032;-69
2023/09/20 02:43:12;;;;;;;5.82;3.90;;;21.30;99.90;;;;;;4590814;19;20016;-69
2023/09/20 02:44:50;;;;;;;7.55;3.95;;;21.30;99.90;;;;;;4590356;19;20102;-69
2023/09/20 02:46:26;;;;;;;5.82;3.60;;;21.30;99.90;;;;;;4591025;19;20006;-69
2023/09/20 02:48:04;;;;;;;6.93;3.92;;;21.30;99.90;;;;;;4591285;19;20002;-69
2023/09/20 02:49:40;;;;;;;5.60;3.60;;;21.30;99.90;;;;;;4590432;19;20348;-69
2023/09/20 02:51:16;;;;;;;6.55;3.60;;;21.40;99.90;;;;;;4591148;19;20298;-69
2023/09/20 02:52:52;;;;;;;5.55;3.40;;;21.40;99.90;;;;;;4590970;19;20069;-68
2023/09/20 02:54:28;;;;;;;7.72;4.10;;;21.50;99.90;;;;;;4589556;19;19999;-69
2023/09/20 02:56:05;;;;;;;6.13;3.65;;;21.50;99.90;;;;;;4591008;19;20014;-69
2023/09/20 02:57:39;;;;;;;6.35;3.75;;;21.50;99.90;;;;;;4591496;19;19998;-69
2023/09/20 02:59:13;;;;;;;6.93;3.45;;;21.60;99.90;;;;;;4590080;19;20009;-69
2023/09/20 03:00:50;;;;;;;5.78;3.95;;;21.60;99.90;;;;;;4590333;19;20070;-69
2023/09/20 03:02:24;;;;;;;7.38;3.17;;;21.60;99.90;;;;;;4591416;19;20010;-69
2023/09/20 03:03:58;;;;;;;8.35;3.97;;;21.60;99.90;;;;;;4591406;19;20003;-69
2023/09/20 03:05:34;;;;;;;5.93;3.67;;;21.60;99.90;;;;;;4591399;19;20007;-69
2023/09/20 03:07:09;;;;;;;6.25;3.70;;;21.60;99.90;;;;;;4590008;19;20317;-69
2023/09/20 03:08:44;;;;;;;5.82;3.45;;;21.60;99.90;;;;;;4590913;19;20085;-69
2023/09/20 03:10:21;;;;;;;4.82;3.78;;;21.60;99.90;;;;;;4590047;19;20322;-69
2023/09/20 03:11:55;;;;;;;6.13;3.88;;;21.60;99.90;;;;;;4590254;19;20044;-69
2023/09/20 03:13:30;;;;;;;5.93;3.40;;;21.60;99.90;;;;;;4590687;19;19999;-69
2023/09/20 03:15:10;;;;;;;4.63;3.40;;;21.60;99.90;;;;;;4591249;19;20443;-69
2023/09/20 03:16:45;;;;;;;7.07;3.97;;;21.60;99.90;;;;;;4590213;19;20007;-69
2023/09/20 03:18:22;;;;;;;5.18;3.30;;;21.70;99.90;;;;;;4589643;19;20014;-69
2023/09/20 03:20:00;;;;;;;7.45;3.70;;;21.60;99.90;;;;;;4589419;19;20022;-69
2023/09/20 03:21:34;;;;;;;7.00;3.72;;;21.60;99.90;;;;;;4595493;19;20022;-69
2023/09/20 03:23:08;;;;;;;8.18;3.95;;;21.60;99.90;;;;;;4595639;19;20033;-69
2023/09/20 03:24:47;;;;;;;5.25;3.55;;;21.60;99.90;;;;;;4595680;19;20006;-69
2023/09/20 03:26:21;;;;;;;5.97;3.50;;;21.60;99.90;;;;;;4595939;19;20030;-69
2023/09/20 03:27:55;;;;;;;6.85;3.58;;;21.60;99.90;;;;;;4595578;19;20298;-69
2023/09/20 03:29:31;;;;;;;6.55;3.88;;;21.60;99.90;;;;;;4593627;19;20034;-69
2023/09/20 03:31:10;;;;;;;7.03;4.10;;;21.60;99.90;;;;;;4595162;19;20006;-69
2023/09/20 03:32:45;;;;;;;5.88;3.80;;;21.60;99.90;;;;;;4595533;19;20030;-69
2023/09/20 03:34:22;;;;;;;7.07;3.80;;;21.60;99.90;;;;;;4595766;19;20461;-69
2023/09/20 03:35:56;;;;;;;6.75;3.83;;;21.60;99.90;;;;;;4595394;19;20006;-69
2023/09/20 03:37:32;;;;;;;6.30;3.47;;;21.60;99.90;;;;;;4595387;19;20009;-69
2023/09/20 03:39:11;;;;;;;6.03;3.53;;;21.60;99.90;;;;;;4594094;19;20100;-68
2023/09/20 03:40:45;;;;;;;5.10;3.58;;;21.60;99.90;;;;;;4593906;19;20406;-69
2023/09/20 03:42:19;;;;;;;5.75;4.10;;;21.60;99.90;;;;;;4595277;19;20030;-69
2023/09/20 03:43:56;;;;;;;7.20;4.32;;;21.60;99.90;;;;;;4595622;19;20298;-69
2023/09/20 03:45:30;;;;;;;6.25;4.00;;;21.60;99.90;;;;;;4595183;19;20003;-69
2023/09/20 03:47:05;;;;;;;5.93;3.95;;;21.60;99.90;;;;;;4595332;19;20003;-69
2023/09/20 03:48:41;;;;;;;6.28;4.03;;;21.60;99.90;;;;;;4595163;19;20006;-69
2023/09/20 03:50:18;;;;;;;6.28;3.83;;;21.70;99.90;;;;;;4593580;19;20002;-69
2023/09/20 03:51:52;;;;;;;10.32;4.32;;;21.70;99.90;;;;;;4593715;19;20398;-69
2023/09/20 03:53:27;;;;;;;5.95;3.72;;;21.80;99.90;;;;;;4593821;19;20003;-69
2023/09/20 03:55:04;;;;;;;6.20;4.43;;;21.90;99.90;;;;;;4594650;19;20444;-69
2023/09/20 03:56:40;;;;;;;6.20;3.90;;;21.90;99.90;;;;;;4595068;19;20013;-69
2023/09/20 03:58:15;;;;;;;5.43;3.60;;;22.00;99.90;;;;;;4594911;19;20006;-69
2023/09/20 03:59:49;;;;;;;6.22;3.85;;;22.10;99.90;;;;;;4594500;19;19999;-69
2023/09/20 04:01:24;;;;;;;7.25;3.70;;;22.10;99.90;;;;;;4594802;19;20015;-69
2023/09/20 04:03:01;;;;;;;7.82;3.95;;;22.10;99.90;;;;;;4594905;19;20010;-69
2023/09/20 04:04:35;;;;;;;6.45;3.75;;;22.10;99.90;;;;;;4593449;19;20434;-69
2023/09/20 04:06:09;;;;;;;7.15;4.03;;;22.10;99.90;;;;;;4594402;19;20319;-69
2023/09/20 04:07:47;;;;;;;7.30;3.50;;;22.10;99.90;;;;;;4594986;19;20070;-69
2023/09/20 04:09:21;;;;;;;10.27;4.57;;;22.10;99.90;;;;;;4594460;19;20328;-69
2023/09/20 04:10:56;;;;;;;7.15;4.40;;;22.10;99.90;;;;;;4593305;19;20020;-69
2023/09/20 04:12:31;;;;;;;5.88;4.50;;;19.70;99.90;;;;;;4594778;19;20006;-69
2023/09/20 04:14:09;;;;;;;6.88;4.97;;;18.30;99.90;;;;;;4594474;19;20026;-69
2023/09/20 04:15:44;;;;;;;6.22;5.03;;;17.70;99.90;;;;;;4593457;19;20018;-68
2023/09/20 04:17:22;;;;;;;6.53;5.15;;;17.30;99.90;;;;;;4593606;19;20006;-68
2023/09/20 04:18:56;;;;;;;7.00;5.10;;;17.10;99.90;;;;;;4595087;19;20037;-69
2023/09/20 04:20:31;;;;;;;7.10;4.55;;;17.00;99.90;;;;;;4593210;19;20010;-69
2023/09/20 04:22:07;;;;;;;7.68;4.80;;;16.90;99.90;;;;;;4594607;19;20007;-69
2023/09/20 04:23:41;;;;;;;7.25;5.28;;;16.80;99.90;;;;;;4592959;19;20010;-69
2023/09/20 04:25:15;;;;;;;6.85;5.00;;;16.80;99.90;;;;;;4594278;19;20003;-69
2023/09/20 04:26:53;;;;;;;7.65;5.28;;;16.80;99.90;;;;;;4594484;19;20397;-69
2023/09/20 04:28:27;;;;;;;6.82;5.43;;;16.70;99.90;;;;;;4594668;19;20120;-69
2023/09/20 04:30:02;;;;;;;7.70;4.93;;;16.70;99.90;;;;;;4593226;19;20002;-69
2023/09/20 04:31:37;;;;;;;5.85;4.72;;;16.60;99.90;;;;;;4594161;19;20002;-69
2023/09/20 04:33:11;;;;;;;7.45;5.15;;;16.60;99.90;;;;;;4592859;19;20002;-69
2023/09/20 04:34:46;;;;;;;7.03;4.63;;;16.60;99.90;;;;;;4593863;19;20003;-69
2023/09/20 04:36:21;;;;;;;6.15;4.45;;;16.50;99.90;;;;;;4594438;19;20019;-69
2023/09/20 04:37:55;;;;;;;5.78;4.68;;;16.50;99.90;;;;;;4594164;19;20318;-68
2023/09/20 04:39:29;;;;;;;6.28;4.68;;;16.50;99.90;;;;;;4594248;19;20423;-69
2023/09/20 04:41:11;;;;;;;5.78;5.00;;;16.50;99.90;;;;;;4594192;19;20497;-69
2023/09/20 04:42:46;;;;;;;7.32;4.90;;;16.50;99.90;;;;;;4594378;19;20074;-69
2023/09/20 04:44:20;;;;;;;6.72;5.70;;;16.40;99.90;;;;;;4594299;19;20006;-69
2023/09/20 04:45:55;;;;;;;7.80;5.13;;;16.40;99.90;;;;;;4594312;19;20295;-69
2023/09/20 04:47:31;;;;;;;8.90;4.78;;;16.40;99.90;;;;;;4592636;19;20007;-69
2023/09/20 04:49:06;;;;;;;6.88;5.57;;;16.40;99.90;;;;;;4593577;19;20006;-68
2023/09/20 04:50:41;;;;;;;7.07;5.47;;;16.40;99.90;;;;;;4591796;19;20014;-68
2023/09/20 04:52:16;;;;;;;5.90;4.68;;;16.40;99.90;;;;;;4593806;19;19998;-69
2023/09/20 04:53:50;;;;;;;5.85;4.68;;;16.40;99.90;;;;;;4594082;19;19998;-68
2023/09/20 04:55:27;;;;;;;5.50;4.88;;;16.30;99.90;;;;;;4594073;19;20014;-69
2023/09/20 04:57:02;;;;;;;6.95;5.40;;;16.30;99.90;;;;;;4594055;19;20002;-69
2023/09/20 04:58:37;;;;;;;6.28;5.03;;;16.30;99.90;;;;;;4593997;19;20023;-70
2023/09/20 05:00:15;;;;;;;6.07;4.82;;;16.30;99.90;;;;;;4593158;19;20038;-70
2023/09/20 05:01:50;;;;;;;6.68;5.00;;;16.30;99.90;;;;;;4593291;19;20014;-68
2023/09/20 05:03:24;;;;;;;6.70;5.00;;;16.30;99.90;;;;;;4592816;19;20006;-68
2023/09/20 05:04:59;;;;;;;6.95;5.07;;;16.30;99.90;;;;;;4593477;19;20007;-68
2023/09/20 05:06:34;;;;;;;6.50;5.20;;;16.30;99.90;;;;;;4593580;19;20006;-68
2023/09/20 05:08:09;;;;;;;6.60;4.60;;;16.40;99.90;;;;;;4593532;19;20032;-68
2023/09/20 05:09:45;;;;;;;7.28;4.90;;;16.30;99.90;;;;;;4592615;19;20006;-68
2023/09/20 05:11:19;;;;;;;5.25;4.45;;;16.40;99.90;;;;;;4593353;19;20010;-68
2023/09/20 05:12:53;;;;;;;6.05;4.68;;;16.40;99.90;;;;;;4593669;19;20002;-68
2023/09/20 05:14:29;;;;;;;6.05;5.00;;;16.30;99.90;;;;;;4593454;19;20022;-68
2023/09/20 05:16:12;;;;;;;6.25;4.80;;;16.40;99.90;;;;;;4592055;19;19998;-68
2023/09/20 05:17:49;;;;;;;5.90;4.68;;;16.30;99.90;;;;;;4593388;19;20013;-68
2023/09/20 05:19:24;;;;;;;6.82;4.90;;;16.40;99.90;;;;;;4593361;19;20032;-68
2023/09/20 05:20:58;;;;;;;7.38;5.10;;;16.40;99.90;;;;;;4591685;19;20018;-68
2023/09/20 05:22:33;;;;;;;8.43;4.93;;;16.40;99.90;;;;;;4593475;19;20024;-68
2023/09/20 05:24:09;;;;;;;6.68;4.88;;;16.40;99.90;;;;;;4593169;19;20006;-68
2023/09/20 05:25:43;;;;;;;6.03;5.05;;;16.40;99.90;;;;;;4593159;19;19999;-68
2023/09/20 05:27:23;;;;;;;5.97;4.53;;;16.40;99.90;;;;;;4591947;19;20006;-68
2023/09/20 05:28:58;;;;;;;6.72;5.28;;;16.40;99.90;;;;;;4593440;19;20007;-68
2023/09/20 05:30:32;;;;;;;7.63;5.47;;;16.40;99.90;;;;;;4591746;19;20013;-68
2023/09/20 05:32:07;;;;;;;6.65;4.82;;;16.40;99.90;;;;;;4592812;19;20411;-68
2023/09/20 05:33:43;;;;;;;8.55;5.25;;;16.50;99.90;;;;;;4592805;19;20023;-68
2023/09/20 05:35:17;;;;;;;7.13;5.85;;;16.50;99.90;;;;;;4592527;19;20022;-68
2023/09/20 05:36:51;;;;;;;7.15;5.03;;;16.50;99.90;;;;;;4592429;19;20026;-68
2023/09/20 05:38:26;;;;;;;7.15;5.22;;;16.50;99.90;;;;;;4593132;19;20003;-68
2023/09/20 05:40:01;;;;;;;7.10;5.50;;;16.50;99.90;;;;;;4590428;19;20066;-68
2023/09/20 05:41:36;;;;;;;7.13;5.20;;;16.60;99.90;;;;;;4591947;19;20034;-68
2023/09/20 05:43:12;;;;;;;6.38;4.65;;;16.50;99.90;;;;;;4591139;19;20007;-68
2023/09/20 05:44:46;;;;;;;7.82;5.30;;;16.60;99.90;;;;;;4592362;19;20069;-69
2023/09/20 05:46:24;;;;;;;8.48;5.20;;;16.60;99.90;;;;;;4592328;19;20013;-68
2023/09/20 05:48:03;;;;;;;6.32;4.85;;;16.60;99.90;;;;;;4590893;19;20006;-68
2023/09/20 05:49:38;;;;;;;6.45;5.38;;;16.60;99.90;;;;;;4591353;19;20011;-68
2023/09/20 05:51:15;;;;;;;6.57;5.10;;;16.60;99.90;;;;;;4592154;19;20006;-68
2023/09/20 05:52:53;;;;;;;6.63;4.90;;;16.60;99.90;;;;;;4592161;19;20014;-68
2023/09/20 05:54:29;;;;;;;5.93;5.18;;;16.60;99.90;;;;;;4592397;19;20032;-68
2023/09/20 05:56:08;;;;;;;7.68;5.53;;;16.70;99.90;;;;;;4592300;19;20065;-68
2023/09/20 05:57:45;;;;;;;7.25;5.13;;;16.60;99.90;;;;;;4592366;19;20011;-68
2023/09/20 05:59:19;;;;;;;6.88;5.28;;;16.70;99.90;;;;;;4592009;19;20032;-68
2023/09/20 06:00:53;;;;;;;6.82;5.13;;;16.70;99.90;;;;;;4590472;19;20429;-68
2023/09/20 06:02:29;;;;;;;6.90;4.97;;;16.80;99.90;;;;;;4591755;19;20030;-68
2023/09/20 06:04:27;;;;;;;7.50;5.25;;;16.80;99.90;;;;;;4591939;19;20484;-68
2023/09/20 06:06:03;;;;;;;7.35;5.63;;;16.80;99.90;;;;;;4590514;19;20046;-68
2023/09/20 06:07:40;;;;;;;6.80;5.50;;;16.80;99.90;;;;;;4591578;19;20328;-68
2023/09/20 06:09:15;;;;;;;7.90;4.88;;;16.90;99.90;;;;;;4591715;19;19999;-68
2023/09/20 06:10:49;;;;;;;6.50;4.78;;;16.90;99.90;;;;;;4590194;19;20010;-68
2023/09/20 06:12:25;;;;;;;5.80;4.57;;;16.90;99.90;;;;;;4591496;19;20018;-68
2023/09/20 06:14:00;;;;;;;6.80;5.32;;;17.00;99.90;;;;;;4591665;19;20006;-68
2023/09/20 06:15:36;;;;;;;7.43;4.97;;;17.00;99.90;;;;;;4591710;19;19994;-68
2023/09/20 06:17:13;;;;;;;6.47;4.78;;;17.00;99.90;;;;;;4590244;19;20006;-69
2023/09/20 06:18:50;;;;;;;7.30;5.10;;;17.10;99.90;;;;;;4591240;19;19999;-69
2023/09/20 06:20:24;;;;;;;6.65;4.32;;;17.10;99.90;;;;;;4590224;19;20074;-69
2023/09/20 06:22:02;;;;;;;6.13;4.80;;;17.10;99.90;;;;;;4591576;19;20006;-69
2023/09/20 06:23:35;;;;;;;7.22;4.43;;;17.10;99.90;;;;;;4591414;19;20010;-69
2023/09/20 06:25:10;;;;;;;6.25;4.07;;;17.20;99.90;;;;;;4591449;19;20025;-69
2023/09/20 06:26:47;;;;;;;7.03;4.68;;;17.20;99.90;;;;;;4591478;19;20010;-69
2023/09/20 06:28:24;;;;;;;7.15;4.65;;;17.20;99.90;;;;;;4591388;19;20007;-69
2023/09/20 06:30:00;;;;;;;6.10;4.45;;;17.20;99.90;;;;;;4590276;19;20401;-69
2023/09/20 06:31:37;;;;;;;5.95;4.70;;;17.30;99.90;;;;;;4590304;19;20343;-69
2023/09/20 06:33:12;;;;;;;6.22;4.00;;;17.30;99.90;;;;;;4591110;19;20349;-69
2023/09/20 06:34:47;;;;;;;6.32;4.57;;;17.30;99.90;;;;;;4591466;19;20355;-69
2023/09/20 06:36:22;;;;;;;7.25;4.68;;;17.30;99.90;;;;;;4591205;19;20010;-69
2023/09/20 06:37:58;;;;;;;6.22;4.68;;;17.40;99.90;;;;;;4590033;19;19999;-69
2023/09/20 06:39:32;;;;;;;7.70;5.07;;;17.40;99.90;;;;;;4591007;19;20007;-69
2023/09/20 06:41:09;;;;;;;5.57;4.20;;;17.40;99.90;;;;;;4591402;19;20003;-69
2023/09/20 06:42:43;;;;;;;6.07;4.38;;;17.40;99.90;;;;;;4591455;19;20002;-69
2023/09/20 06:44:18;;;;;;;7.18;5.25;;;17.50;99.90;;;;;;4591077;19;20009;-69
2023/09/20 06:45:53;;;;;;;6.32;4.50;;;17.50;99.90;;;;;;4591194;19;20007;-69
2023/09/20 06:47:28;;;;;;;5.45;4.00;;;17.50;99.90;;;;;;4591012;19;20002;-69
2023/09/20 06:49:03;;;;;;;6.80;4.18;;;17.50;99.90;;;;;;4591326;19;20006;-69
2023/09/20 06:50:38;;;;;;;6.55;4.15;;;17.50;99.90;;;;;;4589365;19;20426;-69
2023/09/20 06:52:14;;;;;;;5.72;3.60;;;17.60;99.90;;;;;;4591231;19;19998;-69
2023/09/20 06:53:48;;;;;;;5.68;4.22;;;17.60;99.90;;;;;;4591385;19;20406;-69
2023/09/20 06:55:25;;;;;;;7.68;4.22;;;17.60;99.90;;;;;;4592314;19;20040;-69
2023/09/20 06:57:03;;;;;;;6.75;4.00;;;17.60;99.90;;;;;;4595964;19;20007;-69
2023/09/20 06:58:38;;;;;;;5.45;3.88;;;17.60;99.90;;;;;;4595574;19;20433;-69
2023/09/20 07:00:28;;;;;;;5.80;4.00;;;17.70;99.90;;;;;;4594512;19;20010;-69
2023/09/20 07:02:03;;;;;;;7.13;3.90;;;17.70;99.90;;;;;;4594161;19;20010;-69
2023/09/20 07:03:37;;;;;;;5.85;4.00;;;17.70;99.90;;;;;;4595148;19;20002;-69
2023/09/20 07:05:13;;;;;;;5.78;4.18;;;17.70;99.90;;;;;;4595767;19;20364;-69
2023/09/20 07:06:47;;;;;;;8.00;4.05;;;17.80;99.90;;;;;;4595400;19;19998;-69
2023/09/20 07:08:21;;;;;;;6.93;3.80;;;17.80;99.90;;;;;;4595611;19;20019;-69
2023/09/20 07:09:59;;;;;;;5.78;4.20;;;17.80;99.90;;;;;;4593843;19;20611;-69
2023/09/20 07:11:37;;;;;;;5.93;4.10;;;17.80;99.90;;;;;;4593971;19;20006;-70
2023/09/20 07:13:11;;;;;;;5.82;4.10;;;17.80;99.90;;;;;;4593881;19;20007;-68
2023/09/20 07:14:47;;;;;;;6.45;4.00;;;17.80;99.90;;;;;;4595223;19;20006;-69
2023/09/20 07:16:22;;;;;;;5.72;3.65;;;17.90;99.90;;;;;;4593852;19;20003;-69
2023/09/20 07:18:00;;;;;;;5.57;4.38;;;17.90;99.90;;;;;;4595385;19;20014;-68
2023/09/20 07:19:36;;;;;;;5.15;3.60;;;17.90;99.90;;;;;;4593689;19;20074;-68
2023/09/20 07:21:11;;;;;;;5.55;4.05;;;17.90;99.90;;;;;;4594756;19;20007;-69
2023/09/20 07:22:51;;;;;;;5.78;3.97;;;17.90;99.90;;;;;;4593681;19;20010;-68
2023/09/20 07:24:26;;;;;;;5.63;3.92;;;18.00;99.90;;;;;;4594720;19;20078;-69
2023/09/20 07:26:00;;;;;;;5.55;3.60;;;18.00;99.90;;;;;;4595173;19;20002;-68
2023/09/20 07:27:34;;;;;;;5.82;4.03;;;18.00;99.90;;;;;;4595008;19;20288;-69
2023/09/20 07:29:12;;;;;;;5.40;3.60;;;18.00;99.90;;;;;;4595237;19;20041;-68
2023/09/20 07:30:47;;;;;;;5.22;3.80;;;18.10;99.90;;;;;;4592041;19;20006;-68
2023/09/20 07:32:21;;;;;;;5.30;3.85;;;18.10;99.90;;;;;;4594690;19;19998;-68
2023/09/20 07:33:56;;;;;;;5.93;3.58;;;18.10;99.90;;;;;;4595344;19;20014;-69
2023/09/20 07:35:38;;;;;;;5.45;3.72;;;18.20;99.90;;;;;;4594640;19;19995;-68
2023/09/20 07:37:16;;;;;;;5.80;3.58;;;18.20;99.90;;;;;;4595156;19;20312;-68
2023/09/20 07:38:55;;;;;;;5.43;3.90;;;18.20;99.90;;;;;;4594029;19;20026;-68
2023/09/20 07:40:33;;;;;;;5.55;3.80;;;18.30;99.90;;;;;;4594082;19;20021;-68
2023/09/20 07:42:07;;;;;;;4.25;3.10;;;18.30;99.90;;;;;;4595235;19;20010;-68
2023/09/20 07:43:43;;;;;;;5.20;3.45;;;18.30;99.90;;;;;;4595758;19;20418;-68
2023/09/20 07:45:22;;;;;;;4.50;2.97;;;18.30;99.90;;;;;;4593905;19;20301;-68
2023/09/20 07:46:59;;;;;;;4.88;2.95;;;18.40;99.90;;;;;;4593946;19;20019;-68
2023/09/20 07:48:37;;;;;;;7.10;3.38;;;18.40;99.90;;;;;;4594917;19;20006;-68
2023/09/20 07:50:11;;;;;;;6.35;3.08;;;18.40;99.90;;;;;;4594075;19;20007;-68
2023/09/20 07:51:46;;;;;;;5.10;2.95;;;18.40;99.90;;;;;;4595106;19;20003;-68
2023/09/20 07:53:21;;;;;;;4.28;2.95;;;18.40;99.90;;;;;;4595232;19;20003;-67
2023/09/20 07:54:55;;;;;;;5.03;3.15;;;18.50;99.90;;;;;;4593933;19;20006;-68
2023/09/20 07:56:30;;;;;;;6.00;2.80;;;18.50;99.90;;;;;;4594874;19;20006;-68
2023/09/20 07:58:06;;;;;;;4.22;2.80;;;18.50;99.90;;;;;;4595316;19;20007;-68
2023/09/20 07:59:40;;;;;;;4.75;3.30;;;18.50;99.90;;;;;;4594294;19;20074;-68
2023/09/20 08:01:21;;;;;;;5.72;3.10;;;18.60;99.90;;;;;;4594906;19;20019;-68
2023/09/20 08:02:57;;;;;;;4.18;3.00;;;18.60;99.90;;;;;;4594898;19;20010;-68
2023/09/20 08:04:37;;;;;;;7.25;3.03;;;18.60;99.90;;;;;;4594737;19;20010;-67
2023/09/20 08:06:12;;;;;;;4.43;3.13;;;18.60;99.90;;;;;;4592875;19;20013;-68
2023/09/20 08:07:47;;;;;;;4.55;2.70;;;18.70;99.90;;;;;;4594493;19;20003;-68
2023/09/20 08:09:23;;;;;;;4.03;2.60;;;18.70;99.90;;;;;;4594602;19;20010;-69
2023/09/20 08:10:57;;;;;;;6.78;4.18;;;18.70;99.90;;;;;;4593187;19;20011;-68
2023/09/20 08:12:32;;;;;;;5.80;3.30;;;18.80;99.90;;;;;;4595025;19;19998;-68
2023/09/20 08:14:08;;;;;;;9.15;3.88;;;18.80;99.90;;;;;;4593363;19;20019;-68
2023/09/20 08:15:44;;;;;;;3.80;2.65;;;18.80;99.90;;;;;;4594542;19;20013;-68
2023/09/20 08:20:54;;;;;;;;;;;18.90;99.90;;;;;;4593472;19;20042;-68
2023/09/20 09:00:24;;;;;;;3.75;2.33;;;21.00;99.90;;;;;;4593132;19;20007;-69
2023/09/20 09:01:59;;;;;;;5.10;2.58;;;21.20;99.90;;;;;;4592269;19;20007;-68
2023/09/20 09:03:34;;;;;;;3.13;2.00;;;21.40;99.90;;;;;;4593464;19;19999;-69
2023/09/20 09:05:08;;;;;;;5.75;2.35;;;21.50;99.90;;;;;;4593579;19;20323;-69
2023/09/20 09:06:44;;;;;;;3.42;2.10;;;21.50;99.90;;;;;;4592580;19;20073;-69
2023/09/20 09:08:19;;;;;;;2.47;1.70;;;21.60;99.90;;;;;;4592185;19;20310;-69
2023/09/20 09:09:53;;;;;;;3.53;1.88;;;21.80;99.90;;;;;;4591091;19;20022;-68
2023/09/20 09:11:30;;;;;;;4.80;1.98;;;21.80;99.90;;;;;;4592398;19;20007;-68
2023/09/20 09:13:04;;;;;;;3.13;1.85;;;21.90;99.90;;;;;;4593381;19;20325;-68
2023/09/20 09:14:42;;;;;;;3.55;1.80;;;22.00;99.90;;;;;;4593387;19;20426;-68
2023/09/20 09:16:20;;;;;;;3.25;1.63;;;22.00;99.90;;;;;;4593735;19;20011;-69
2023/09/20 09:17:54;;;;;;;4.40;1.80;;;22.10;99.90;;;;;;4591585;19;20002;-68
2023/09/20 09:19:29;;;;;;;4.43;1.40;;;22.00;99.90;;;;;;4593300;19;20003;-69
2023/09/20 09:21:06;;;;;;;2.10;1.30;;;22.10;99.90;;;;;;4592291;19;20438;-68